WEATHER DATA

YESTERDAY
Time Temp. Dewp. Hum. Wind dir Wind speed Wind gust Bar. 1h Prec. 24h Prec.
00:04 -1.1 -6.4 64 0 0 1020.6 0.0000 0.0000
00:14 -1.2 -6.3 65 0 0 1020.7 0.0000 0.0000
00:24 -1.4 -6.5 65 0 0 1020.7 0.0000 0.0000
00:35 -1.5 -6.6 65 0 0 1021 0.0000 0.0000
00:44 -1.6 -6.5 66 0 0 1021.2 0.0000 0.0000
00:54 -1.7 -6.6 66 0 0 1021.4 0.0000 0.0000
01:04 -1.8 -6.5 67 0 0 1021.6 0.0000 0.0000
01:15 -1.8 -6.5 67 0 0 1021.7 0.0000 0.0000
01:25 -1.8 -6.5 67 0 0 1021.8 0.0000 0.0000
01:35 -1.9 -6.6 67 0 0 1021.9 0.0000 0.0000
01:45 -1.9 -6.4 68 0 0 1022.1 0.0000 0.0000
02:05 -2 -6.5 68 0 0 1022.3 0.0000 0.0000
02:15 -2.1 -6.6 68 0 0 1022.4 0.0000 0.0000
02:26 -2.2 -6.6 69 0 0 1022.6 0.0000 0.0000
02:36 -2.3 -6.7 69 0 0 1022.7 0.0000 0.0000
02:46 -2.4 -6.6 70 0 0 1022.7 0.0000 0.0000
02:56 -2.5 -6.7 70 0 0 1023 0.0000 0.0000
03:06 -2.5 -6.7 70 0 0 1023.3 0.0000 0.0000
03:16 -2.6 -6.6 71 0 0 1023.2 0.0000 0.0000
03:26 -2.7 -6.7 71 0 0 1023.4 0.0000 0.0000
03:37 -2.8 -6.8 71 0 0 1023.6 0.0000 0.0000
03:47 -2.9 -6.7 72 0 0 1023.6 0.0000 0.0000
03:56 -2.9 -6.7 72 0 0 1023.7 0.0000 0.0000
04:06 -3 -6.8 72 0 0 1024 0.0000 0.0000
04:17 -3.1 -6.8 73 0 0 1024.1 0.0000 0.0000
04:27 -3.2 -6.9 73 0 0 1024.2 0.0000 0.0000
04:37 -3.3 -7 73 0 0 1024.4 0.0000 0.0000
04:47 -3.3 -6.8 74 0 0 1024.6 0.0000 0.0000
04:58 -3.4 -6.9 74 0 0 1024.6 0.0000 0.0000
05:07 -3.5 -6.9 75 0 0 1024.7 0.0000 0.0000
05:17 -3.6 -7 75 0 0 1024.8 0.0000 0.0000
05:28 -3.6 -6.8 76 0 0 1024.9 0.0000 0.0000
05:38 -3.6 -6.8 76 0 0 1024.8 0.0000 0.0000
05:48 -3.6 -6.7 77 0 0 1025 0.0000 0.0000
05:58 -3.5 -6.6 77 0 0 1025.1 0.0000 0.0000
06:08 -3.5 -6.6 77 0 0 1025.3 0.0000 0.0000
06:18 -3.5 -6.6 77 0 0 1025.6 0.0000 0.0000
06:28 -3.5 -6.6 77 0 0 1025.7 0.0000 0.0000
06:39 -3.6 -6.7 77 0 0 1026 0.0000 0.0000
06:49 -3.7 -6.8 77 0 0 1026.1 0.0000 0.0000
06:59 -3.7 -6.6 78 0 0 1026.3 0.0000 0.0000
07:08 -3.6 -6.5 78 0 0 1026.6 0.0000 0.0000
07:19 -3.6 -6.5 78 0 0 1026.7 0.0000 0.0000
07:29 -3.3 -6.2 78 0 0 1026.7 0.0000 0.0000
07:39 -2.6 -5.5 78 0 0 1026.9 0.0000 0.0000
07:49 -2.3 -5.2 78 0 0 1027.1 0.0000 0.0000
07:59 -1.9 -5 77 0 0 1027.1 0.0000 0.0000
08:09 -1.6 -4.9 76 0 0 1027.2 0.0000 0.0000
08:19 -1.3 -4.7 75 0 0 1027.4 0.0000 0.0000
08:30 -0.9 -4.3 75 0 0 1027.6 0.0000 0.0000
08:39 -0.4 -4 74 0 0 1027.6 0.0000 0.0000
08:48 -0.2 -4 73 0 0 1027.8 0.0000 0.0000
08:59 0.1 -3.8 72 0 0 1027.9 0.0000 0.0000
09:10 0.3 -3.8 71 0 0 1028 0.0000 0.0000
09:20 0.6 -3.6 71 0 0 1028.1 0.0000 0.0000
09:29 0.9 -3.5 70 0 0 1028.2 0.0000 0.0000
09:40 1.1 -3.5 69 0 0 1028.4 0.0000 0.0000
09:50 1.3 -3.5 68 0 0 1028.5 0.0000 0.0000
09:59 1.5 -3.5 67 0 0 1028.7 0.0000 0.0000
10:10 1.7 -3.3 67 0 0 1028.8 0.0000 0.0000
10:20 2.3 -3.4 64 0 0 1029 0.0000 0.0000
10:30 3 -3.2 62 0 0 1029.1 0.0000 0.0000
10:40 3.6 -3 60 0 0 1029.3 0.0000 0.0000
10:50 3.9 -3.2 58 0 0 1029.2 0.0000 0.0000
10:59 4.2 -2.9 58 0 0 1029.2 0.0000 0.0000
11:10 4 -3.9 54 0 0 1029.4 0.0000 0.0000
11:20 3.9 -3.8 55 0 0 1029.5 0.0000 0.0000
11:30 4.1 -3.9 54 0 0 1029.7 0.0000 0.0000
11:40 4.6 -3.7 53 0 0 1029.8 0.0000 0.0000
11:50 4.7 -3.6 53 0 0 1030.1 0.0000 0.0000
12:01 4.7 -3.6 53 0 0 1029.9 0.0000 0.0000
12:11 4.5 -4.2 51 0 0 1030 0.0000 0.0000
12:20 4.4 -3.8 53 0 0 1030 0.0000 0.0000
12:31 4.8 -4 51 0 0 1030.2 0.0000 0.0000
12:41 4.9 -4.1 50 0 0 1030.1 0.0000 0.0000
12:51 5 -4.3 49 0 0 1030.1 0.0000 0.0000
13:01 5.1 -4.2 49 0 0 1030.3 0.0000 0.0000
13:11 5.4 -3.9 49 0 0 1030.3 0.0000 0.0000
13:31 5.9 -4 47 0 0 1030.5 0.0000 0.0000
13:41 6 -3.9 47 0 0 1030.6 0.0000 0.0000
13:52 6.4 -3.9 46 0 0 1030.5 0.0000 0.0000
14:01 6.5 -4 45 0 0 1030.6 0.0000 0.0000
14:11 6.7 -4.1 44 0 0 1030.6 0.0000 0.0000
14:22 6.7 -4.1 44 0 0 1030.6 0.0000 0.0000
14:32 6.8 -4.6 42 0 0 1030.6 0.0000 0.0000
14:42 6.8 -5.2 40 0 0 1030.6 0.0000 0.0000
15:02 6.9 -5.4 39 0 0 1030.7 0.0000 0.0000
15:12 7 -5 40 0 0 1030.6 0.0000 0.0000
15:22 7.1 -5.5 38 0 0 1030.7 0.0000 0.0000
15:32 7.1 -4.7 41 0 0 1030.7 0.0000 0.0000
15:42 7.3 -4.5 41 0 0 1030.7 0.0000 0.0000
15:52 7.3 -4.5 41 0 0 1030.8 0.0000 0.0000
16:02 7.3 -4.8 40 0 0 1030.7 0.0000 0.0000
16:13 7.4 -4.4 41 0 0 1030.5 0.0000 0.0000
16:31 7.6 -4.5 40 0 0 1030.6 0.0000 0.0000
16:43 7.8 -4.4 40 0 0 1030.5 0.0000 0.0000
16:53 7.9 -4 41 0 0 1030.3 0.0000 0.0000
17:02 7.9 -4 41 0 0 1030.5 0.0000 0.0000
17:12 7.7 -4.2 41 0 0 1030.4 0.0000 0.0000
17:23 7.7 -4.2 41 0 0 1030.4 0.0000 0.0000
17:33 7.8 -4.1 41 0 0 1030.5 0.0000 0.0000
17:42 7.7 -4.8 39 0 0 1030.4 0.0000 0.0000
17:53 7.7 -4.2 41 0 0 1030.5 0.0000 0.0000
18:03 7.9 -4.3 40 0 0 1030.5 0.0000 0.0000
18:13 7.9 -4.3 40 0 0 1030.3 0.0000 0.0000
18:23 7.9 -4.3 40 0 0 1030.2 0.0000 0.0000
18:33 7.7 -4.8 39 0 0 1030.3 0.0000 0.0000
18:43 7.2 -4.9 40 0 0 1030.3 0.0000 0.0000
18:53 6.6 -5.1 41 0 0 1030.5 0.0000 0.0000
19:03 6.2 -4.8 43 0 0 1030.4 0.0000 0.0000
19:13 5.7 -5 44 0 0 1030.4 0.0000 0.0000
19:23 5.2 -5.4 44 0 0 1030.5 0.0000 0.0000
19:33 4.8 -5.4 45 0 0 1030.5 0.0000 0.0000
19:44 4.4 -5.5 46 0 0 1030.5 0.0000 0.0000
20:03 3.5 -5.7 48 0 0 1030.7 0.0000 0.0000
20:16 2.9 -6 49 0 0 1030.7 0.0000 0.0000
20:26 2.6 -6 50 0 0 1030.6 0.0000 0.0000
20:36 2.2 -6.1 51 0 0 1030.7 0.0000 0.0000
20:56 1.6 -6.4 52 0 0 1030.7 0.0000 0.0000
21:06 1.3 -6.4 53 0 0 1030.9 0.0000 0.0000
21:16 1 -6.2 55 0 0 1030.9 0.0000 0.0000
21:26 0.7 -6.5 55 0 0 1031.1 0.0000 0.0000
21:36 0.4 -6.5 56 0 0 1031 0.0000 0.0000
21:46 0.2 -6.5 57 0 0 1030.9 0.0000 0.0000
21:56 0 -6.5 58 0 0 1030.9 0.0000 0.0000
22:06 -0.2 -6.4 59 0 0 1031 0.0000 0.0000
22:16 -0.4 -6.4 60 0 0 1030.9 0.0000 0.0000
22:26 -0.7 -6.7 60 0 0 1031 0.0000 0.0000
22:47 -1 -6.8 61 0 0 1031.2 0.0000 0.0000
22:56 -1.2 -7 61 0 0 1031.1 0.0000 0.0000
23:06 -1.3 -6.9 62 0 0 1031.1 0.0000 0.0000
23:16 -1.4 -6.8 63 0 0 1031.1 0.0000
23:27 -1.4 -6.8 63 0 0 1031 0.0000
23:37 -1.5 -6.9 63 0 0 1031.2 0.0000
23:46 -1.6 -7 63 0 0 1031 0.0000
23:57 -1.6 -6.9 64 0 0 1031.2 0.0000

DAY STATISTIC

2020-04-05
TEMPERATURE
AVERAGE
1.5
HIGH
7.9
16:53
LOW
-3.7
06:49
PRESSURE
AVERAGE
1028.0
HIGH
1031.2
22:47
LOW
1020.6
00:04
DEWPOINT
AVERAGE
-5.4
HIGH
-2.9
10:59
LOW
-7.0
04:37
HUMIDITY
AVERAGE
59
HIGH
78
06:59
LOW
38
15:22
WIND SPEED
AVERAGE
0.0
HIGH
0.0
22:27
WIND GUST
AVERAGE
0.0
HIGH
0.0
22:27
WIND DIRECTION
PREVAILING
%
PRECIPITATION
RAIN HOUR
0.0
RAIN DAY
0.0
TEMPERATURE (°C)
LOW
-3.7
HIGH
7.9
AVERAGE
1.5
PRESSURE (hpa)
LOW
1020.6
HIGH
1031.2
AVERAGE
1028.0
DEVICE